Time;durP1;ratioP1;P1;durP2;ratioP2;P2;SDS_P1;SDS_P2;PMS_P1;PMS_P2;Temp;Humidity;BMP_temperature;BMP_pressure;BME280_temperature;BME280_humidity;BME280_pressure;Samples;Min_cycle;Max_cycle;Signal;HPM_P1;HPM_P2
2021/12/31 00:02:15;;;;;;;4.93;2.67;;;14.90;99.90;;;;;;5056803;28;20476;-66
2021/12/31 00:04:41;;;;;;;5.53;2.80;;;14.90;99.90;;;;;;5056787;28;20461;-66
2021/12/31 00:07:09;;;;;;;3.70;2.10;;;14.90;99.90;;;;;;5056634;28;20466;-66
2021/12/31 00:09:36;;;;;;;6.83;2.27;;;14.90;99.90;;;;;;5056686;28;20503;-66
2021/12/31 00:12:07;;;;;;;6.40;2.47;;;15.00;99.90;;;;;;5057595;28;20802;-66
2021/12/31 00:14:34;;;;;;;6.57;2.17;;;15.00;99.90;;;;;;5056687;28;20438;-66
2021/12/31 00:17:01;;;;;;;6.50;2.47;;;15.00;99.90;;;;;;5056541;28;20450;-66
2021/12/31 00:19:31;;;;;;;9.67;2.33;;;15.00;99.90;;;;;;5056229;28;20457;-66
2021/12/31 00:22:02;;;;;;;4.07;2.20;;;15.00;99.90;;;;;;5056417;28;20472;-66
2021/12/31 00:24:29;;;;;;;2.70;2.13;;;15.00;99.90;;;;;;5056357;28;20510;-66
2021/12/31 00:26:55;;;;;;;4.53;2.03;;;15.00;99.90;;;;;;5056747;28;20488;-65
2021/12/31 00:29:23;;;;;;;3.10;1.93;;;15.00;99.90;;;;;;5056894;28;20449;-66
2021/12/31 00:31:50;;;;;;;9.10;2.80;;;15.00;99.90;;;;;;5056111;28;20983;-66
2021/12/31 00:34:17;;;;;;;4.87;2.40;;;15.00;99.90;;;;;;5056270;28;20461;-65
2021/12/31 00:36:46;;;;;;;3.60;1.97;;;15.00;99.90;;;;;;5056663;28;20483;-65
2021/12/31 00:39:14;;;;;;;2.40;1.90;;;15.00;99.90;;;;;;5057717;28;20449;-65
2021/12/31 00:41:41;;;;;;;5.13;2.07;;;15.00;99.90;;;;;;5057295;28;20472;-65
2021/12/31 00:44:07;;;;;;;9.10;2.30;;;14.90;99.90;;;;;;5056165;28;20438;-65
2021/12/31 00:46:36;;;;;;;6.07;2.20;;;14.90;99.90;;;;;;5056002;28;20481;-65
2021/12/31 00:49:03;;;;;;;3.53;1.73;;;14.90;99.90;;;;;;5055920;28;20446;-65
2021/12/31 00:51:30;;;;;;;7.97;2.70;;;14.90;99.90;;;;;;5055547;28;20975;-65
2021/12/31 00:53:57;;;;;;;9.93;2.17;;;14.90;99.90;;;;;;5055872;28;20441;-66
2021/12/31 00:56:24;;;;;;;5.93;2.80;;;15.00;99.90;;;;;;5055840;28;20449;-65
2021/12/31 00:58:50;;;;;;;3.53;2.07;;;15.00;99.90;;;;;;5055442;28;20612;-65
2021/12/31 01:01:20;;;;;;;4.10;2.20;;;15.00;99.90;;;;;;5055646;28;20461;-66
2021/12/31 01:03:49;;;;;;;4.93;2.27;;;15.00;99.90;;;;;;5055698;28;20540;-66
2021/12/31 01:06:16;;;;;;;2.47;2.10;;;15.00;99.90;;;;;;5055586;28;20482;-65
2021/12/31 01:08:43;;;;;;;6.57;2.13;;;15.00;99.90;;;;;;5055904;28;20445;-66
2021/12/31 01:11:10;;;;;;;3.37;2.23;;;15.00;99.90;;;;;;5055507;28;20445;-65
2021/12/31 01:13:50;;;;;;;3.37;2.13;;;14.90;99.90;;;;;;5055502;28;20464;-65
2021/12/31 01:16:18;;;;;;;4.53;2.03;;;15.00;99.90;;;;;;5055483;28;20426;-66
2021/12/31 01:21:33;;;;;;;3.30;1.97;;;15.00;99.90;;;;;;5055597;28;20445;-65
2021/12/31 01:24:01;;;;;;;3.30;2.50;;;15.00;99.90;;;;;;5055788;28;20434;-65
2021/12/31 01:26:28;;;;;;;8.77;3.40;;;15.00;99.90;;;;;;5055164;28;20535;-66
2021/12/31 01:28:55;;;;;;;4.60;2.00;;;15.10;99.90;;;;;;5055874;28;20794;-66
2021/12/31 01:31:24;;;;;;;6.83;2.23;;;15.10;99.90;;;;;;5055045;28;20469;-66
2021/12/31 01:33:50;;;;;;;5.23;1.67;;;15.10;99.90;;;;;;5054783;28;20823;-66
2021/12/31 01:36:17;;;;;;;3.00;1.70;;;15.10;99.90;;;;;;5055071;28;20445;-66
2021/12/31 01:38:45;;;;;;;6.73;2.80;;;15.10;99.90;;;;;;5054989;28;20453;-66
2021/12/31 01:41:13;;;;;;;3.23;2.03;;;15.10;99.90;;;;;;5054921;28;20446;-66
2021/12/31 01:43:40;;;;;;;5.37;2.23;;;15.10;99.90;;;;;;5054927;28;20450;-66
2021/12/31 01:46:11;;;;;;;5.93;2.20;;;15.10;99.90;;;;;;5055081;28;20480;-66
2021/12/31 01:48:58;;;;;;;5.60;2.67;;;15.00;99.90;;;;;;5054934;28;20528;-66
2021/12/31 01:51:25;;;;;;;4.23;2.13;;;15.10;99.90;;;;;;5054506;28;20476;-66
2021/12/31 01:53:54;;;;;;;6.20;2.33;;;15.10;99.90;;;;;;5054686;28;20475;-66
2021/12/31 01:56:22;;;;;;;5.83;2.47;;;15.00;99.90;;;;;;5054131;28;20442;-66
2021/12/31 01:58:52;;;;;;;5.40;2.00;;;15.10;99.90;;;;;;5054669;28;20456;-66
2021/12/31 02:01:19;;;;;;;5.50;1.90;;;15.10;99.90;;;;;;5054544;28;20465;-66
2021/12/31 02:03:47;;;;;;;4.07;1.60;;;15.10;99.90;;;;;;5054594;28;20441;-66
2021/12/31 02:06:14;;;;;;;3.87;1.80;;;15.10;99.90;;;;;;5054151;28;20851;-66
2021/12/31 02:08:40;;;;;;;6.33;1.77;;;15.10;99.90;;;;;;5054435;28;20458;-66
2021/12/31 02:11:08;;;;;;;4.10;1.83;;;15.10;99.90;;;;;;5053911;28;20974;-67
2021/12/31 02:13:37;;;;;;;5.67;2.03;;;15.10;99.90;;;;;;5054314;28;20446;-66
2021/12/31 02:16:04;;;;;;;2.33;1.80;;;15.00;99.90;;;;;;5054277;28;20441;-66
2021/12/31 02:18:31;;;;;;;4.67;1.97;;;15.10;99.90;;;;;;5054077;28;20465;-66
2021/12/31 02:20:59;;;;;;;4.90;2.30;;;15.10;99.90;;;;;;5054116;28;20492;-67
2021/12/31 02:23:32;;;;;;;6.30;1.63;;;15.00;99.90;;;;;;5053809;28;20963;-66
2021/12/31 02:25:58;;;;;;;3.97;2.20;;;15.10;99.90;;;;;;5054136;28;20433;-66
2021/12/31 02:28:26;;;;;;;3.00;1.50;;;15.10;99.90;;;;;;5054083;28;20438;-66
2021/12/31 02:30:54;;;;;;;6.07;1.93;;;15.10;99.90;;;;;;5053943;28;20954;-65
2021/12/31 02:33:21;;;;;;;6.87;2.10;;;15.10;99.90;;;;;;5053604;28;20500;-66
2021/12/31 02:35:48;;;;;;;3.80;2.27;;;15.10;99.90;;;;;;5054186;28;20445;-65
2021/12/31 02:38:16;;;;;;;5.20;1.87;;;15.10;99.90;;;;;;5054397;28;20823;-64
2021/12/31 02:40:43;;;;;;;5.40;2.00;;;15.00;99.90;;;;;;5053947;28;20452;-66
2021/12/31 02:43:10;;;;;;;4.47;1.90;;;15.00;99.90;;;;;;5053840;28;20465;-65
2021/12/31 02:45:40;;;;;;;3.10;1.80;;;15.00;99.90;;;;;;5053486;28;20970;-68
2021/12/31 02:48:07;;;;;;;4.90;1.90;;;15.00;99.90;;;;;;5053692;28;20477;-68
2021/12/31 02:50:35;;;;;;;2.83;1.57;;;15.00;99.90;;;;;;5054189;28;20463;-68
2021/12/31 02:53:02;;;;;;;5.00;1.53;;;15.00;99.90;;;;;;5053854;28;20481;-68
2021/12/31 02:55:32;;;;;;;2.00;1.50;;;15.00;99.90;;;;;;5053861;28;20449;-68
2021/12/31 02:57:59;;;;;;;6.10;1.97;;;15.00;99.90;;;;;;5053320;28;20944;-68
2021/12/31 03:00:28;;;;;;;3.90;1.87;;;15.00;99.90;;;;;;5053525;28;20457;-68
2021/12/31 03:02:56;;;;;;;1.80;1.40;;;15.00;99.90;;;;;;5053411;28;20469;-68
2021/12/31 03:05:24;;;;;;;3.10;1.53;;;15.00;99.90;;;;;;5053493;28;20446;-68
2021/12/31 03:07:51;;;;;;;5.10;1.37;;;15.00;99.90;;;;;;5052725;28;20477;-67
2021/12/31 03:10:19;;;;;;;2.90;1.87;;;15.00;99.90;;;;;;5053193;28;20448;-67
2021/12/31 03:12:50;;;;;;;3.90;1.40;;;15.00;99.90;;;;;;5053224;28;20469;-67
2021/12/31 03:15:17;;;;;;;2.70;1.70;;;15.00;99.90;;;;;;5053392;28;20426;-68
2021/12/31 03:17:45;;;;;;;1.37;1.20;;;15.00;99.90;;;;;;5053018;28;20950;-68
2021/12/31 03:20:16;;;;;;;7.30;2.03;;;15.00;99.90;;;;;;5052931;28;20469;-68
2021/12/31 03:22:44;;;;;;;2.40;1.70;;;15.00;99.90;;;;;;5053525;28;20470;-68
2021/12/31 03:25:12;;;;;;;2.60;1.53;;;15.00;99.90;;;;;;5052972;28;20928;-68
2021/12/31 03:27:40;;;;;;;2.20;1.63;;;15.10;99.90;;;;;;5053106;28;20484;-68
2021/12/31 03:30:11;;;;;;;3.50;2.07;;;15.00;99.90;;;;;;5053094;28;20955;-68
2021/12/31 03:32:38;;;;;;;7.43;1.90;;;15.00;99.90;;;;;;5053933;28;20492;-68
2021/12/31 03:35:05;;;;;;;4.70;2.00;;;15.10;99.90;;;;;;5053135;28;20441;-68
2021/12/31 03:37:32;;;;;;;1.97;1.50;;;15.10;99.90;;;;;;5052917;28;20923;-68
2021/12/31 03:39:59;;;;;;;7.70;1.67;;;15.10;99.90;;;;;;5053184;28;20476;-68
2021/12/31 03:42:25;;;;;;;3.53;1.50;;;15.10;99.90;;;;;;5053337;28;20465;-68
2021/12/31 03:44:52;;;;;;;3.33;1.77;;;15.10;99.90;;;;;;5053861;28;20970;-68
2021/12/31 03:47:20;;;;;;;6.80;1.63;;;15.10;99.90;;;;;;5054073;28;20480;-68
2021/12/31 03:49:47;;;;;;;6.40;1.80;;;15.10;99.90;;;;;;5053117;28;20445;-68
2021/12/31 03:52:14;;;;;;;5.90;1.83;;;15.10;99.90;;;;;;5053391;28;20548;-68
2021/12/31 03:54:41;;;;;;;5.90;2.00;;;15.10;99.90;;;;;;5052702;28;20939;-68
2021/12/31 03:57:08;;;;;;;7.60;2.47;;;15.10;99.90;;;;;;5052701;28;20928;-68
2021/12/31 03:59:35;;;;;;;7.50;1.90;;;15.10;99.90;;;;;;5053035;28;20456;-68
2021/12/31 04:02:01;;;;;;;3.40;1.93;;;15.10;99.90;;;;;;5052993;28;20461;-68
2021/12/31 04:04:30;;;;;;;7.40;1.90;;;15.10;99.90;;;;;;5052966;28;20472;-68
2021/12/31 04:06:57;;;;;;;7.80;1.90;;;15.10;99.90;;;;;;5052880;28;20860;-68
2021/12/31 04:09:23;;;;;;;6.93;1.47;;;15.00;99.90;;;;;;5052913;28;20809;-68
2021/12/31 04:11:50;;;;;;;6.40;1.70;;;15.00;99.90;;;;;;5052796;28;20461;-68
2021/12/31 04:14:17;;;;;;;5.83;1.70;;;15.00;99.90;;;;;;5052856;28;20445;-68
2021/12/31 04:16:43;;;;;;;4.13;1.90;;;15.00;99.90;;;;;;5053302;28;20455;-68
2021/12/31 04:19:10;;;;;;;5.60;1.80;;;15.00;99.90;;;;;;5052726;28;20483;-68
2021/12/31 04:21:38;;;;;;;4.60;1.80;;;15.00;99.90;;;;;;5056362;28;20466;-68
2021/12/31 04:24:08;;;;;;;5.37;1.70;;;15.00;99.90;;;;;;5056501;28;20456;-68
2021/12/31 04:26:35;;;;;;;9.93;2.20;;;15.00;99.90;;;;;;5056672;28;20460;-68
2021/12/31 04:29:02;;;;;;;4.00;1.70;;;14.90;99.90;;;;;;5056053;28;20968;-68
2021/12/31 04:31:28;;;;;;;6.50;1.63;;;14.90;99.90;;;;;;5057157;28;20519;-68
2021/12/31 04:33:55;;;;;;;4.83;2.40;;;14.90;99.90;;;;;;5056003;28;20446;-66
2021/12/31 04:36:22;;;;;;;5.80;1.87;;;14.90;99.90;;;;;;5056133;28;20450;-66
2021/12/31 04:38:50;;;;;;;7.17;2.00;;;14.90;99.90;;;;;;5056259;28;20960;-65
2021/12/31 04:41:17;;;;;;;2.53;2.10;;;14.90;99.90;;;;;;5055997;28;20442;-66
2021/12/31 04:43:43;;;;;;;4.97;2.00;;;14.90;99.90;;;;;;5056209;28;20453;-66
2021/12/31 04:46:10;;;;;;;6.13;2.37;;;14.80;99.90;;;;;;5056673;28;20450;-66
2021/12/31 04:48:37;;;;;;;3.03;2.10;;;14.80;99.90;;;;;;5055896;28;20495;-66
2021/12/31 04:51:04;;;;;;;3.50;2.40;;;14.80;99.90;;;;;;5055537;28;20460;-66
2021/12/31 04:53:30;;;;;;;8.40;2.77;;;14.80;99.90;;;;;;5056171;28;20450;-66
2021/12/31 04:55:59;;;;;;;6.20;3.00;;;14.80;99.90;;;;;;5055920;28;20450;-66
2021/12/31 04:58:26;;;;;;;5.20;2.70;;;14.80;99.90;;;;;;5055969;28;20442;-66
2021/12/31 05:00:52;;;;;;;6.57;2.20;;;14.70;99.90;;;;;;5055591;28;20867;-66
2021/12/31 05:03:20;;;;;;;7.00;2.37;;;14.70;99.90;;;;;;5055581;28;20519;-66
2021/12/31 05:05:46;;;;;;;6.97;1.93;;;14.60;99.90;;;;;;5055319;28;20485;-66
2021/12/31 05:08:13;;;;;;;4.67;2.00;;;14.70;99.90;;;;;;5055526;28;20486;-65
2021/12/31 05:10:40;;;;;;;2.43;1.73;;;14.70;99.90;;;;;;5055576;28;20449;-66
2021/12/31 05:13:10;;;;;;;3.73;2.20;;;14.70;99.90;;;;;;5055415;28;20559;-66
2021/12/31 05:15:44;;;;;;;4.97;1.90;;;14.70;99.90;;;;;;5055834;28;20440;-65
2021/12/31 05:18:10;;;;;;;5.00;2.43;;;14.70;99.90;;;;;;5055291;28;20441;-66
2021/12/31 05:20:37;;;;;;;3.97;1.60;;;14.70;99.90;;;;;;5055438;28;20434;-66
2021/12/31 05:23:04;;;;;;;2.70;1.80;;;14.70;99.90;;;;;;5055067;28;20891;-66
2021/12/31 05:25:31;;;;;;;4.70;1.77;;;14.70;99.90;;;;;;5055327;28;20434;-66
2021/12/31 05:27:57;;;;;;;4.10;1.73;;;14.80;99.90;;;;;;5055149;28;20486;-66
2021/12/31 05:30:26;;;;;;;5.17;1.87;;;14.70;99.90;;;;;;5055076;28;20452;-66
2021/12/31 05:32:53;;;;;;;3.33;1.60;;;14.70;99.90;;;;;;5054360;28;20491;-66
2021/12/31 05:35:19;;;;;;;3.33;1.40;;;14.70;99.90;;;;;;5054837;28;20812;-66
2021/12/31 05:37:46;;;;;;;2.97;1.60;;;14.70;99.90;;;;;;5055071;28;20441;-66
2021/12/31 05:40:13;;;;;;;4.57;1.90;;;14.70;99.90;;;;;;5055029;28;20450;-66
2021/12/31 05:42:40;;;;;;;3.50;1.20;;;14.70;99.90;;;;;;5054914;28;20461;-66
2021/12/31 05:45:09;;;;;;;2.70;1.20;;;14.70;99.90;;;;;;5054903;28;20450;-66
2021/12/31 05:47:38;;;;;;;6.37;2.23;;;14.70;99.90;;;;;;5055132;28;20983;-66
2021/12/31 05:50:07;;;;;;;2.97;1.47;;;14.70;99.90;;;;;;5055088;28;20446;-65
2021/12/31 05:52:34;;;;;;;4.90;2.70;;;14.60;99.90;;;;;;5054662;28;20469;-66
2021/12/31 05:55:01;;;;;;;2.73;1.37;;;14.60;99.90;;;;;;5054678;28;20449;-66
2021/12/31 05:57:28;;;;;;;2.17;1.77;;;14.60;99.90;;;;;;5054610;28;20473;-66
2021/12/31 05:59:54;;;;;;;2.40;1.50;;;14.60;99.90;;;;;;5054666;28;20441;-66
2021/12/31 06:02:21;;;;;;;2.60;1.63;;;14.60;99.90;;;;;;5054576;28;20465;-66
2021/12/31 06:04:49;;;;;;;2.60;1.50;;;14.60;99.90;;;;;;5054540;28;20446;-66
2021/12/31 06:07:16;;;;;;;4.07;1.47;;;14.60;99.90;;;;;;5054417;28;20477;-66
2021/12/31 06:09:42;;;;;;;3.47;1.77;;;14.50;99.90;;;;;;5054401;28;20445;-66
2021/12/31 06:12:10;;;;;;;3.70;1.80;;;14.50;99.90;;;;;;5054040;28;21009;-66
2021/12/31 06:14:36;;;;;;;4.70;1.70;;;14.50;99.90;;;;;;5054336;28;20519;-66
2021/12/31 06:17:07;;;;;;;5.83;1.80;;;14.50;99.90;;;;;;5054048;28;20944;-66
2021/12/31 06:19:34;;;;;;;3.37;1.63;;;14.50;99.90;;;;;;5053988;28;20519;-66
2021/12/31 06:22:02;;;;;;;3.43;1.63;;;14.50;99.90;;;;;;5054152;28;20836;-66
2021/12/31 06:24:29;;;;;;;2.43;1.40;;;14.50;99.90;;;;;;5054251;28;20449;-66
2021/12/31 06:26:56;;;;;;;2.10;1.63;;;14.40;99.90;;;;;;5054165;28;20437;-66
2021/12/31 06:29:22;;;;;;;2.13;1.30;;;14.40;99.90;;;;;;5053825;28;20975;-66
2021/12/31 06:31:49;;;;;;;2.83;1.63;;;14.30;99.90;;;;;;5053973;28;20462;-66
2021/12/31 06:34:16;;;;;;;4.83;1.47;;;14.30;99.90;;;;;;5053997;28;20436;-66
2021/12/31 06:36:43;;;;;;;4.30;2.10;;;14.30;99.90;;;;;;5054205;28;20441;-66
2021/12/31 06:39:11;;;;;;;2.97;1.73;;;14.30;99.90;;;;;;5054748;28;20905;-66
2021/12/31 06:41:37;;;;;;;2.03;1.83;;;14.20;99.90;;;;;;5053870;28;20473;-66
2021/12/31 06:44:05;;;;;;;3.23;1.70;;;14.20;99.90;;;;;;5053763;28;20430;-66
2021/12/31 06:46:32;;;;;;;4.90;2.63;;;14.20;99.90;;;;;;5055299;28;20454;-66
2021/12/31 06:48:58;;;;;;;3.33;1.97;;;14.20;99.90;;;;;;5055064;28;20534;-66
2021/12/31 06:51:25;;;;;;;3.03;1.80;;;14.20;99.90;;;;;;5056560;28;20821;-66
2021/12/31 06:53:52;;;;;;;6.23;1.93;;;14.10;99.90;;;;;;5055650;28;20811;-66
2021/12/31 06:56:20;;;;;;;5.43;1.60;;;14.00;99.90;;;;;;5054042;28;20500;-66
2021/12/31 06:58:46;;;;;;;5.07;1.70;;;14.00;99.90;;;;;;5058285;28;20520;-66
2021/12/31 07:01:13;;;;;;;4.57;1.80;;;14.00;99.90;;;;;;5061875;28;20453;-67
2021/12/31 07:03:40;;;;;;;1.47;1.20;;;14.00;99.90;;;;;;5065096;28;20450;-67
2021/12/31 07:06:07;;;;;;;4.30;1.80;;;13.90;99.90;;;;;;5059762;28;20437;-66
2021/12/31 07:08:33;;;;;;;4.20;2.00;;;13.90;99.90;;;;;;5062925;28;20477;-66
2021/12/31 07:11:00;;;;;;;3.40;1.80;;;14.00;99.90;;;;;;5062484;28;20453;-66
2021/12/31 07:13:28;;;;;;;2.17;1.97;;;14.00;99.90;;;;;;5062132;28;20445;-66
2021/12/31 07:15:55;;;;;;;3.13;1.43;;;13.90;99.90;;;;;;5061933;28;20457;-66
2021/12/31 07:18:24;;;;;;;5.23;1.83;;;13.90;99.90;;;;;;5059341;28;20450;-66
2021/12/31 07:20:51;;;;;;;4.23;2.30;;;13.90;99.90;;;;;;5062769;28;20434;-67
2021/12/31 07:23:20;;;;;;;3.20;1.80;;;13.80;99.90;;;;;;5062409;28;20472;-66
2021/12/31 07:25:47;;;;;;;3.10;1.90;;;13.90;99.90;;;;;;5063415;28;20445;-66
2021/12/31 07:28:15;;;;;;;3.60;2.30;;;13.80;99.90;;;;;;5063144;28;20489;-66
2021/12/31 07:30:45;;;;;;;2.20;1.93;;;13.80;99.90;;;;;;5061790;28;20453;-66
2021/12/31 07:33:39;;;;;;;3.10;2.30;;;13.80;99.90;;;;;;5063150;28;20461;-66
2021/12/31 07:36:13;;;;;;;3.57;2.07;;;13.80;99.90;;;;;;5053581;28;20429;-66
2021/12/31 07:38:46;;;;;;;3.80;2.60;;;13.80;99.90;;;;;;5053266;28;20468;-67
2021/12/31 07:41:13;;;;;;;5.63;2.67;;;13.80;99.90;;;;;;5053041;28;20900;-66
2021/12/31 07:43:40;;;;;;;3.60;3.07;;;13.80;99.90;;;;;;5053340;28;20852;-66
2021/12/31 07:46:08;;;;;;;5.80;3.50;;;13.80;99.90;;;;;;5053256;28;20436;-67
2021/12/31 07:48:35;;;;;;;3.43;3.07;;;13.80;99.90;;;;;;5053124;28;20517;-66
2021/12/31 07:51:01;;;;;;;3.53;2.80;;;13.90;99.90;;;;;;5052922;28;20858;-67
2021/12/31 07:53:28;;;;;;;4.10;3.23;;;13.90;99.90;;;;;;5053125;28;20449;-66
2021/12/31 07:55:55;;;;;;;4.17;3.10;;;13.80;99.90;;;;;;5055878;28;20441;-67
2021/12/31 07:58:23;;;;;;;3.27;2.70;;;13.80;99.90;;;;;;5056730;28;20426;-67
2021/12/31 08:00:50;;;;;;;4.30;3.90;;;13.80;99.90;;;;;;5056897;28;20449;-67
2021/12/31 08:03:18;;;;;;;3.33;3.03;;;13.80;99.90;;;;;;5057108;28;20473;-67
2021/12/31 08:05:45;;;;;;;6.27;3.47;;;13.90;99.90;;;;;;5056525;28;20453;-67
2021/12/31 08:08:12;;;;;;;5.10;3.03;;;13.80;99.90;;;;;;5056634;28;20480;-67
2021/12/31 08:10:39;;;;;;;5.90;2.90;;;13.80;99.90;;;;;;5056765;28;20527;-67
2021/12/31 08:13:05;;;;;;;2.47;2.27;;;13.80;99.90;;;;;;5056294;28;20967;-67
2021/12/31 08:15:32;;;;;;;3.77;2.60;;;13.90;99.90;;;;;;5056587;28;20452;-66
2021/12/31 08:17:59;;;;;;;3.90;2.83;;;13.90;99.90;;;;;;5056632;28;20433;-67
2021/12/31 08:20:27;;;;;;;2.93;2.63;;;13.90;99.90;;;;;;5056350;28;20480;-67
2021/12/31 08:22:54;;;;;;;5.67;2.90;;;13.90;99.90;;;;;;5056147;28;20987;-67
2021/12/31 08:25:21;;;;;;;2.90;2.60;;;13.90;99.90;;;;;;5056561;28;20434;-67
2021/12/31 08:27:48;;;;;;;3.13;2.63;;;14.00;99.90;;;;;;5056374;28;20449;-67
2021/12/31 08:30:15;;;;;;;3.47;2.70;;;13.90;99.90;;;;;;5056064;28;20826;-67
2021/12/31 08:32:41;;;;;;;2.83;2.60;;;14.00;99.90;;;;;;5056267;28;20461;-67
2021/12/31 08:35:09;;;;;;;3.90;3.20;;;14.00;99.90;;;;;;5056266;28;20446;-67
2021/12/31 08:37:38;;;;;;;3.33;3.00;;;14.00;99.90;;;;;;5056301;28;20433;-67
2021/12/31 08:40:05;;;;;;;6.07;3.20;;;14.00;99.90;;;;;;5056107;28;20457;-66
2021/12/31 08:42:32;;;;;;;2.70;2.50;;;14.00;99.90;;;;;;5056078;28;20473;-66
2021/12/31 08:44:59;;;;;;;7.20;3.33;;;14.00;99.90;;;;;;5056032;28;20445;-66
2021/12/31 08:47:25;;;;;;;4.67;3.27;;;14.00;99.90;;;;;;5055613;28;20448;-66
2021/12/31 08:49:52;;;;;;;4.47;3.00;;;14.00;99.90;;;;;;5056019;28;20465;-66
2021/12/31 08:52:19;;;;;;;5.10;4.07;;;14.00;99.90;;;;;;5055603;28;20951;-66
2021/12/31 08:54:47;;;;;;;5.10;2.83;;;14.00;99.90;;;;;;5056652;28;20456;-66
2021/12/31 08:57:14;;;;;;;3.37;3.07;;;14.10;99.90;;;;;;5055951;28;20519;-66
2021/12/31 08:59:41;;;;;;;3.17;2.87;;;14.10;99.90;;;;;;5055644;28;20448;-66
2021/12/31 09:02:09;;;;;;;2.90;2.70;;;14.10;99.90;;;;;;5055420;28;21003;-66
2021/12/31 09:04:36;;;;;;;4.10;2.70;;;14.20;99.90;;;;;;5055485;28;20779;-66
2021/12/31 09:07:02;;;;;;;6.03;3.37;;;14.20;99.90;;;;;;5055646;28;20457;-66
2021/12/31 09:09:29;;;;;;;3.47;2.47;;;14.20;99.90;;;;;;5055493;28;20839;-66
2021/12/31 09:11:57;;;;;;;3.20;2.53;;;14.30;99.90;;;;;;5055557;28;20465;-67
2021/12/31 09:14:24;;;;;;;6.63;2.37;;;14.20;99.90;;;;;;5055280;28;20996;-67
2021/12/31 09:16:50;;;;;;;3.00;2.67;;;14.20;99.90;;;;;;5055200;28;20959;-67
2021/12/31 09:19:17;;;;;;;2.60;2.40;;;14.30;99.90;;;;;;5055198;28;20480;-67
2021/12/31 09:21:44;;;;;;;3.33;2.50;;;14.30;99.90;;;;;;5055350;28;20834;-67
2021/12/31 09:24:11;;;;;;;8.20;2.43;;;14.40;99.90;;;;;;5055094;28;20963;-67
2021/12/31 09:26:38;;;;;;;4.70;2.10;;;14.40;99.90;;;;;;5055191;28;20510;-67
2021/12/31 09:29:06;;;;;;;2.63;1.97;;;14.40;99.90;;;;;;5055185;28;20473;-67
2021/12/31 09:31:33;;;;;;;2.23;1.83;;;14.50;99.90;;;;;;5055348;28;20472;-67
2021/12/31 09:33:59;;;;;;;2.33;2.03;;;14.50;99.90;;;;;;5055503;28;20446;-67
2021/12/31 09:36:26;;;;;;;3.13;2.00;;;14.60;99.90;;;;;;5055140;28;20454;-67
2021/12/31 09:38:53;;;;;;;1.80;1.70;;;14.60;99.90;;;;;;5055085;28;20446;-68
2021/12/31 09:41:20;;;;;;;4.00;1.97;;;14.60;99.90;;;;;;5054986;28;20446;-67
2021/12/31 09:43:50;;;;;;;4.37;1.90;;;14.70;99.90;;;;;;5054968;28;20441;-67
2021/12/31 09:46:19;;;;;;;2.40;1.77;;;14.70;99.90;;;;;;5054994;28;20461;-67
2021/12/31 09:48:46;;;;;;;5.00;1.70;;;14.70;99.90;;;;;;5054688;28;21014;-67
2021/12/31 09:51:13;;;;;;;2.13;1.70;;;14.70;99.90;;;;;;5054784;28;20819;-67
2021/12/31 09:53:40;;;;;;;2.97;1.57;;;14.80;99.90;;;;;;5054464;28;20762;-67
2021/12/31 09:56:07;;;;;;;2.00;1.80;;;14.80;99.90;;;;;;5055143;28;20448;-67
2021/12/31 09:58:35;;;;;;;1.80;1.70;;;14.80;99.90;;;;;;5056309;28;20445;-66
2021/12/31 10:01:02;;;;;;;2.50;2.07;;;14.90;99.90;;;;;;5056062;28;20460;-67
2021/12/31 10:03:32;;;;;;;2.90;1.70;;;14.90;99.90;;;;;;5054593;28;20454;-67
2021/12/31 10:06:00;;;;;;;2.97;1.80;;;15.00;99.90;;;;;;5054511;28;20453;-67
2021/12/31 10:08:30;;;;;;;3.23;1.50;;;15.10;99.90;;;;;;5054701;28;20484;-67
2021/12/31 10:11:08;;;;;;;4.37;1.80;;;15.20;99.90;;;;;;5054594;28;20430;-67
2021/12/31 10:13:36;;;;;;;1.70;1.43;;;15.20;99.90;;;;;;5054103;28;20463;-67
2021/12/31 10:16:03;;;;;;;1.93;1.77;;;15.30;99.90;;;;;;5054355;28;20453;-67
2021/12/31 10:18:33;;;;;;;2.00;1.87;;;15.40;99.90;;;;;;5053866;28;20453;-66
2021/12/31 10:21:00;;;;;;;1.90;1.70;;;15.40;99.90;;;;;;5054288;28;20445;-65
2021/12/31 10:23:37;;;;;;;2.30;1.63;;;15.40;99.90;;;;;;5054429;28;20446;-66
2021/12/31 10:26:10;;;;;;;2.20;1.53;;;15.30;99.90;;;;;;5054226;28;20515;-67
2021/12/31 10:28:37;;;;;;;2.43;1.70;;;15.30;99.90;;;;;;5054126;28;20477;-65
2021/12/31 10:31:11;;;;;;;1.63;1.53;;;15.40;99.90;;;;;;5054080;28;20446;-65
2021/12/31 10:33:44;;;;;;;1.93;1.60;;;15.30;99.60;;;;;;5054718;28;20448;-65
2021/12/31 10:36:32;;;;;;;3.23;1.73;;;15.20;99.80;;;;;;5053669;28;20977;-65
2021/12/31 10:39:00;;;;;;;2.50;1.50;;;15.10;99.90;;;;;;5054045;28;20464;-66
2021/12/31 10:41:28;;;;;;;2.80;1.97;;;14.90;99.90;;;;;;5054591;28;20465;-67
2021/12/31 10:43:58;;;;;;;1.60;1.50;;;14.80;99.90;;;;;;5053762;28;20448;-66
2021/12/31 10:46:25;;;;;;;1.60;1.50;;;14.70;99.90;;;;;;5054025;28;20461;-66
2021/12/31 10:48:55;;;;;;;1.60;1.50;;;14.70;99.90;;;;;;5053785;28;20485;-66
2021/12/31 10:51:37;;;;;;;2.17;1.87;;;14.60;99.90;;;;;;5053383;28;20984;-66
2021/12/31 10:54:18;;;;;;;1.80;1.70;;;14.70;99.90;;;;;;5053675;28;20464;-66
2021/12/31 10:56:45;;;;;;;1.63;1.50;;;14.70;99.90;;;;;;5054530;28;20830;-66
2021/12/31 10:59:12;;;;;;;2.60;1.73;;;14.70;99.90;;;;;;5053247;28;20822;-66
2021/12/31 11:01:40;;;;;;;2.80;1.70;;;14.60;99.90;;;;;;5053193;28;20978;-66
2021/12/31 11:04:10;;;;;;;1.77;1.40;;;14.60;99.90;;;;;;5053818;28;20453;-66
2021/12/31 11:06:39;;;;;;;3.97;1.97;;;14.60;99.90;;;;;;5053492;28;20437;-66
2021/12/31 11:09:06;;;;;;;2.20;1.53;;;14.60;99.90;;;;;;5053355;28;20488;-66
2021/12/31 11:11:34;;;;;;;2.27;1.50;;;14.70;99.90;;;;;;5054135;28;20910;-66
2021/12/31 11:14:02;;;;;;;2.77;1.50;;;14.70;99.90;;;;;;5053499;28;20969;-66
2021/12/31 11:16:29;;;;;;;2.80;1.23;;;14.70;99.90;;;;;;5053479;28;20446;-66
2021/12/31 11:18:57;;;;;;;2.07;1.77;;;14.70;99.90;;;;;;5053675;28;20453;-66
2021/12/31 11:21:25;;;;;;;6.87;1.50;;;14.70;99.90;;;;;;5053705;28;20469;-66
2021/12/31 11:23:52;;;;;;;1.70;1.60;;;14.70;99.90;;;;;;5053361;28;20453;-66
2021/12/31 11:26:28;;;;;;;1.77;1.50;;;14.80;99.90;;;;;;5053940;28;20448;-66
2021/12/31 11:28:55;;;;;;;4.60;1.40;;;14.80;99.90;;;;;;5053254;28;20466;-66
2021/12/31 11:31:26;;;;;;;1.33;1.23;;;14.80;99.90;;;;;;5057122;28;20556;-67
2021/12/31 11:34:16;;;;;;;1.97;1.27;;;14.80;99.90;;;;;;5057509;28;20430;-67
2021/12/31 11:36:48;;;;;;;1.90;1.80;;;14.80;99.90;;;;;;5057079;28;20451;-66
2021/12/31 11:39:16;;;;;;;2.63;1.60;;;14.80;99.90;;;;;;5057574;28;20426;-67
2021/12/31 11:41:46;;;;;;;1.50;1.40;;;14.80;99.90;;;;;;5057259;28;20493;-67
2021/12/31 11:44:14;;;;;;;1.13;1.07;;;14.80;99.90;;;;;;5057336;28;20488;-67
2021/12/31 11:46:42;;;;;;;1.57;1.47;;;14.90;99.90;;;;;;5057312;28;20449;-68
2021/12/31 11:49:11;;;;;;;2.23;1.43;;;15.00;99.90;;;;;;5056799;28;20488;-68
2021/12/31 11:51:55;;;;;;;2.33;1.50;;;15.00;99.90;;;;;;5057069;28;20470;-68
2021/12/31 11:54:23;;;;;;;3.00;1.50;;;15.10;99.90;;;;;;5056779;28;20434;-67
2021/12/31 11:57:08;;;;;;;1.50;1.17;;;15.10;99.90;;;;;;5057092;28;20456;-67
2021/12/31 11:59:58;;;;;;;3.17;1.40;;;15.10;99.90;;;;;;5056647;28;20947;-68
2021/12/31 12:02:40;;;;;;;2.13;1.20;;;15.10;99.60;;;;;;5057627;28;20496;-67
2021/12/31 12:05:15;;;;;;;4.57;1.90;;;15.30;99.50;;;;;;5056802;28;20947;-67
2021/12/31 12:07:51;;;;;;;1.73;1.03;;;15.40;98.40;;;;;;5056886;28;20447;-67
2021/12/31 12:10:29;;;;;;;1.73;1.63;;;15.50;98.10;;;;;;5057514;28;20461;-67
2021/12/31 12:13:18;;;;;;;2.83;1.40;;;15.50;98.30;;;;;;5056693;28;20469;-67
2021/12/31 12:15:45;;;;;;;3.70;1.37;;;15.50;98.40;;;;;;5056288;28;20469;-67
2021/12/31 12:18:14;;;;;;;2.83;1.30;;;15.50;97.70;;;;;;5056739;28;20446;-67
2021/12/31 12:20:43;;;;;;;3.33;1.10;;;15.50;98.00;;;;;;5056498;28;20487;-67
2021/12/31 12:23:23;;;;;;;2.20;1.50;;;15.50;97.70;;;;;;5056673;28;20469;-66
2021/12/31 12:25:51;;;;;;;2.90;1.40;;;15.50;97.50;;;;;;5056543;28;20860;-67
2021/12/31 12:28:20;;;;;;;4.23;1.27;;;15.50;97.80;;;;;;5056431;28;20471;-67
2021/12/31 12:30:53;;;;;;;3.53;1.77;;;15.40;97.70;;;;;;5056013;28;20999;-67
2021/12/31 12:33:25;;;;;;;2.60;1.53;;;15.30;98.20;;;;;;5056093;28;20927;-67
2021/12/31 12:35:53;;;;;;;2.40;1.73;;;15.10;98.00;;;;;;5056334;28;20430;-67
2021/12/31 12:38:26;;;;;;;1.93;1.40;;;15.10;98.80;;;;;;5056251;28;20454;-67
2021/12/31 12:40:55;;;;;;;2.20;1.50;;;15.20;98.50;;;;;;5055755;28;20440;-67
2021/12/31 12:43:24;;;;;;;3.33;1.77;;;15.20;98.70;;;;;;5056218;28;20472;-66
2021/12/31 12:45:54;;;;;;;2.60;1.53;;;15.30;98.90;;;;;;5055799;28;20794;-68
2021/12/31 12:48:35;;;;;;;2.90;1.77;;;15.20;98.60;;;;;;5056004;28;20441;-66
2021/12/31 12:51:03;;;;;;;2.03;1.50;;;15.20;98.70;;;;;;5055543;28;20456;-66
2021/12/31 12:53:32;;;;;;;3.35;1.83;;;15.20;99.00;;;;;;5055147;28;20423;-67
2021/12/31 12:56:09;;;;;;;2.07;1.50;;;15.20;99.00;;;;;;5055982;28;20214;-67
2021/12/31 12:58:39;;;;;;;5.73;2.00;;;15.30;98.90;;;;;;5055963;28;20426;-67